Time;durP1;ratioP1;P1;durP2;ratioP2;P2;SDS_P1;SDS_P2;PMS_P1;PMS_P2;Temp;Humidity;BMP_temperature;BMP_pressure;BME280_temperature;BME280_humidity;BME280_pressure;Samples;Min_cycle;Max_cycle;Signal;HPM_P1;HPM_P2
2022/05/04 00:00:37;;;;;;;8.27;5.75;;;14.70;46.30;;;;;;5057395;28;20056;-42
2022/05/04 00:03:05;;;;;;;7.68;5.60;;;14.70;46.40;;;;;;5052856;28;20064;-45
2022/05/04 00:05:32;;;;;;;9.45;4.95;;;14.70;46.50;;;;;;5059800;28;20396;-43
2022/05/04 00:07:59;;;;;;;7.20;4.72;;;14.70;46.50;;;;;;5058674;28;20064;-46
2022/05/04 00:10:30;;;;;;;7.10;4.80;;;14.60;46.90;;;;;;5056772;28;20503;-43
2022/05/04 00:12:58;;;;;;;8.40;5.13;;;14.60;46.50;;;;;;5054182;28;20053;-43
2022/05/04 00:15:27;;;;;;;6.28;4.97;;;14.60;46.60;;;;;;5057294;28;20057;-43
2022/05/04 00:17:54;;;;;;;7.15;5.00;;;14.60;46.70;;;;;;5054522;28;20063;-44
2022/05/04 00:20:22;;;;;;;7.32;5.05;;;14.60;46.70;;;;;;5056399;28;20044;-44
2022/05/04 00:22:49;;;;;;;8.40;5.60;;;14.60;47.20;;;;;;5053143;28;20075;-43
2022/05/04 00:25:17;;;;;;;11.00;5.72;;;14.50;46.80;;;;;;5053894;28;20045;-43
2022/05/04 00:27:44;;;;;;;11.73;5.80;;;14.50;46.90;;;;;;5056144;28;20063;-45
2022/05/04 00:30:12;;;;;;;12.63;6.45;;;14.50;47.00;;;;;;5053422;28;20052;-43
2022/05/04 00:32:41;;;;;;;11.82;7.78;;;14.40;47.10;;;;;;5049632;28;20059;-43
2022/05/04 00:35:09;;;;;;;12.65;6.50;;;14.40;47.30;;;;;;5051986;28;20060;-43
2022/05/04 00:37:37;;;;;;;6.53;5.00;;;14.40;47.40;;;;;;5054934;28;20071;-44
2022/05/04 00:40:05;;;;;;;7.30;4.97;;;14.40;47.50;;;;;;5056243;28;20059;-43
2022/05/04 00:42:33;;;;;;;5.95;4.75;;;14.40;47.40;;;;;;5050738;28;20055;-43
2022/05/04 00:45:00;;;;;;;11.23;5.63;;;14.30;47.30;;;;;;5056910;28;20048;-43
2022/05/04 00:47:27;;;;;;;8.48;5.88;;;14.30;47.30;;;;;;5057312;28;20048;-43
2022/05/04 00:49:57;;;;;;;7.72;5.65;;;14.30;47.30;;;;;;5056580;28;20051;-46
2022/05/04 00:52:25;;;;;;;7.55;5.03;;;14.30;47.40;;;;;;5052871;28;20059;-43
2022/05/04 00:54:53;;;;;;;7.47;5.68;;;14.20;47.40;;;;;;5061019;28;20496;-42
2022/05/04 00:58:54;;;;;;;6.90;5.35;;;14.20;47.60;;;;;;5059613;28;20053;-43
2022/05/04 01:00:10;;;;;;;8.68;5.57;;;14.20;47.70;;;;;;5057204;28;20048;-44
2022/05/04 01:02:39;;;;;;;8.20;5.75;;;14.20;47.80;;;;;;5057800;28;20048;-43
2022/05/04 01:05:10;;;;;;;7.05;5.40;;;14.10;48.00;;;;;;5057834;28;20115;-43
2022/05/04 01:07:38;;;;;;;10.40;6.10;;;14.10;48.20;;;;;;5061119;28;20516;-44
2022/05/04 01:10:07;;;;;;;10.18;6.68;;;14.10;48.20;;;;;;5057921;28;20049;-43
2022/05/04 01:12:35;;;;;;;9.13;6.75;;;14.10;48.30;;;;;;5053940;28;20067;-46
2022/05/04 01:15:04;;;;;;;9.88;7.28;;;14.00;48.30;;;;;;5060062;28;20049;-43
2022/05/04 01:17:32;;;;;;;9.95;7.00;;;14.00;48.40;;;;;;5059813;28;20415;-44
2022/05/04 01:19:59;;;;;;;13.77;8.68;;;14.00;48.40;;;;;;5061044;28;20485;-43
2022/05/04 01:22:28;;;;;;;12.95;8.70;;;14.00;48.60;;;;;;5055302;28;20057;-43
2022/05/04 01:24:55;;;;;;;14.45;9.68;;;13.90;48.80;;;;;;5059291;28;20054;-43
2022/05/04 01:27:23;;;;;;;14.27;9.75;;;14.00;49.20;;;;;;5057546;28;20052;-43
2022/05/04 01:29:50;;;;;;;13.45;9.13;;;13.90;49.30;;;;;;5061930;28;20407;-45
2022/05/04 01:32:18;;;;;;;12.63;8.75;;;13.90;49.40;;;;;;5054355;28;20064;-44
2022/05/04 01:34:45;;;;;;;13.90;8.82;;;13.90;49.50;;;;;;5059255;28;20059;-45
2022/05/04 01:37:13;;;;;;;12.98;7.55;;;13.90;49.60;;;;;;5055460;28;20060;-43
2022/05/04 01:39:41;;;;;;;13.38;7.10;;;13.90;49.60;;;;;;5053627;28;20056;-43
2022/05/04 01:42:13;;;;;;;9.27;6.72;;;13.90;49.70;;;;;;5057656;28;20064;-42
2022/05/04 01:44:42;;;;;;;11.80;7.03;;;13.90;49.60;;;;;;5063609;28;20493;-43
2022/05/04 01:47:10;;;;;;;12.18;7.72;;;13.90;49.60;;;;;;5061383;28;20416;-43
2022/05/04 01:49:38;;;;;;;10.80;7.38;;;13.80;49.60;;;;;;5057894;28;20404;-43
2022/05/04 01:52:07;;;;;;;13.32;7.57;;;13.80;49.70;;;;;;5053338;28;20052;-43
2022/05/04 01:54:34;;;;;;;9.07;6.53;;;13.80;49.70;;;;;;5062897;28;20057;-45
2022/05/04 01:57:03;;;;;;;7.32;5.82;;;13.80;49.70;;;;;;5060626;28;20412;-43
2022/05/04 01:59:31;;;;;;;9.43;6.28;;;13.80;49.70;;;;;;5055470;28;20045;-45
2022/05/04 02:02:00;;;;;;;10.18;6.85;;;13.70;49.60;;;;;;5053350;28;20056;-43
2022/05/04 02:04:27;;;;;;;11.63;7.43;;;13.70;49.70;;;;;;5061417;28;20507;-43
2022/05/04 02:06:55;;;;;;;9.73;6.60;;;13.70;49.80;;;;;;5061739;28;20079;-43
2022/05/04 02:09:23;;;;;;;9.05;6.60;;;13.60;49.80;;;;;;5061170;28;20063;-43
2022/05/04 02:11:50;;;;;;;11.93;8.30;;;13.60;49.90;;;;;;5054496;28;20053;-43
2022/05/04 02:14:19;;;;;;;15.15;8.55;;;13.60;50.00;;;;;;5061617;28;20057;-43
2022/05/04 02:16:47;;;;;;;11.20;7.53;;;13.50;50.10;;;;;;5060722;28;20052;-47
2022/05/04 02:19:14;;;;;;;20.67;13.20;;;13.50;50.20;;;;;;5054795;28;20048;-44
2022/05/04 02:21:42;;;;;;;20.92;12.35;;;13.50;50.50;;;;;;5054869;28;20049;-43
2022/05/04 02:24:09;;;;;;;16.50;10.45;;;13.40;51.00;;;;;;5061006;28;20056;-43
2022/05/04 02:26:37;;;;;;;16.33;11.07;;;13.40;51.10;;;;;;5059290;28;20480;-43
2022/05/04 02:29:04;;;;;;;17.33;10.95;;;13.30;51.10;;;;;;5060190;28;20060;-43
2022/05/04 02:31:33;;;;;;;13.48;9.00;;;13.30;51.10;;;;;;5054969;28;20417;-43
2022/05/04 02:34:00;;;;;;;19.63;10.38;;;13.20;51.20;;;;;;5056363;28;20421;-46
2022/05/04 02:39:13;;;;;;;16.33;10.10;;;13.20;51.40;;;;;;5063131;28;20055;-45
2022/05/04 02:41:40;;;;;;;21.20;10.98;;;13.10;51.30;;;;;;5054466;28;20060;-43
2022/05/04 02:44:08;;;;;;;18.23;11.27;;;13.10;51.50;;;;;;5061804;28;20515;-43
2022/05/04 02:46:37;;;;;;;25.17;14.55;;;13.10;51.60;;;;;;5060796;28;20044;-43
2022/05/04 02:49:04;;;;;;;23.88;15.43;;;13.10;51.90;;;;;;5052774;28;20063;-47
2022/05/04 02:51:31;;;;;;;23.20;14.52;;;13.00;52.20;;;;;;5055496;28;20051;-43
2022/05/04 02:53:59;;;;;;;36.58;20.17;;;13.00;52.60;;;;;;5061376;28;20520;-44
2022/05/04 02:56:26;;;;;;;26.70;16.00;;;13.00;53.00;;;;;;5062485;28;20056;-43
2022/05/04 02:58:54;;;;;;;27.33;15.77;;;12.90;53.10;;;;;;5055968;28;20048;-46
2022/05/04 03:04:08;;;;;;;26.55;15.82;;;12.90;53.40;;;;;;5064521;28;20075;-44
2022/05/04 03:06:37;;;;;;;30.65;17.23;;;12.90;53.50;;;;;;5059116;28;20052;-44
2022/05/04 03:09:05;;;;;;;27.30;16.38;;;12.90;53.60;;;;;;5059765;28;20064;-43
2022/05/04 03:14:18;;;;;;;26.30;16.10;;;12.90;53.80;;;;;;5065069;28;20059;-44
2022/05/04 03:16:47;;;;;;;24.45;14.00;;;12.90;53.80;;;;;;5059828;28;20073;-43
2022/05/04 03:19:16;;;;;;;23.13;13.95;;;12.90;53.80;;;;;;5053526;28;20056;-44
2022/05/04 03:21:43;;;;;;;26.70;14.50;;;12.90;53.80;;;;;;5055061;28;20044;-43
2022/05/04 03:24:11;;;;;;;15.45;10.48;;;12.90;53.70;;;;;;5061213;28;20052;-45
2022/05/04 03:26:39;;;;;;;16.85;10.20;;;12.90;53.50;;;;;;5061056;28;20494;-44
2022/05/04 03:29:07;;;;;;;15.43;9.70;;;13.00;53.30;;;;;;5055471;28;20053;-46
2022/05/04 03:31:35;;;;;;;35.33;19.67;;;13.00;53.20;;;;;;5050424;28;20059;-43
2022/05/04 03:34:03;;;;;;;44.40;21.15;;;12.90;53.80;;;;;;5055989;28;20774;-43
2022/05/04 03:36:32;;;;;;;34.67;19.23;;;12.90;54.40;;;;;;5057230;28;20052;-43
2022/05/04 03:39:01;;;;;;;32.80;19.88;;;12.90;54.30;;;;;;5050987;28;20056;-45
2022/05/04 03:41:28;;;;;;;40.05;20.88;;;12.90;54.70;;;;;;5054518;28;20059;-44
2022/05/04 03:43:56;;;;;;;40.10;22.73;;;12.80;54.90;;;;;;5057818;28;20056;-45
2022/05/04 03:46:25;;;;;;;39.78;20.75;;;12.80;55.20;;;;;;5058797;28;20055;-43
2022/05/04 03:48:55;;;;;;;31.65;18.77;;;12.70;55.30;;;;;;5048447;28;20060;-44
2022/05/04 03:51:22;;;;;;;30.58;17.63;;;12.70;55.30;;;;;;5053132;28;20053;-44
2022/05/04 03:53:53;;;;;;;25.08;13.57;;;12.70;55.20;;;;;;5050667;28;20045;-46
2022/05/04 03:56:21;;;;;;;18.17;11.63;;;12.70;55.10;;;;;;5054469;28;20053;-43
2022/05/04 03:58:49;;;;;;;20.17;11.93;;;12.70;54.90;;;;;;5053204;28;20067;-44
2022/05/04 04:01:18;;;;;;;22.23;14.10;;;12.70;54.80;;;;;;5051831;28;20056;-44
2022/05/04 04:03:45;;;;;;;23.85;13.65;;;12.70;54.70;;;;;;5055639;28;20496;-45
2022/05/04 04:06:13;;;;;;;19.25;12.55;;;12.80;54.70;;;;;;5060271;28;20404;-43
2022/05/04 04:08:41;;;;;;;29.13;15.13;;;12.80;54.70;;;;;;5058815;28;20060;-45
2022/05/04 04:11:10;;;;;;;21.75;13.73;;;12.70;54.60;;;;;;5058936;28;20044;-44
2022/05/04 04:13:38;;;;;;;27.55;15.15;;;12.70;54.70;;;;;;5055409;28;20542;-46
2022/05/04 04:16:06;;;;;;;26.40;16.27;;;12.70;54.70;;;;;;5053779;28;20385;-45
2022/05/04 04:18:33;;;;;;;29.35;16.38;;;12.70;54.70;;;;;;5049274;28;20059;-43
2022/05/04 04:23:46;;;;;;;24.13;14.63;;;12.70;54.70;;;;;;5064351;28;20063;-46
2022/05/04 04:26:15;;;;;;;27.02;15.65;;;12.80;54.60;;;;;;5048372;28;20067;-44
2022/05/04 04:28:42;;;;;;;41.22;21.35;;;12.70;54.70;;;;;;5056550;28;20103;-44
2022/05/04 04:31:10;;;;;;;38.13;20.35;;;12.70;55.00;;;;;;5026805;28;20045;-43
2022/05/04 04:33:38;;;;;;;39.90;21.83;;;12.70;55.20;;;;;;5026118;28;20057;-43
2022/05/04 04:36:07;;;;;;;34.35;19.15;;;12.70;55.30;;;;;;5039558;28;20053;-45
2022/05/04 04:38:35;;;;;;;32.78;18.13;;;12.60;55.30;;;;;;5037471;28;20072;-44
2022/05/04 04:41:02;;;;;;;32.53;19.50;;;12.60;55.30;;;;;;5035969;28;20052;-44
2022/05/04 04:43:31;;;;;;;33.75;18.30;;;12.60;55.60;;;;;;5031255;28;20053;-44
2022/05/04 04:45:59;;;;;;;31.90;18.65;;;12.60;55.70;;;;;;5031528;28;20060;-43
2022/05/04 04:48:26;;;;;;;33.65;18.85;;;12.60;55.70;;;;;;5033666;28;20544;-43
2022/05/04 04:50:54;;;;;;;33.47;18.17;;;12.60;55.80;;;;;;5039555;28;20089;-43
2022/05/04 04:53:21;;;;;;;33.97;17.63;;;12.60;55.90;;;;;;5032100;28;20049;-44
2022/05/04 04:55:49;;;;;;;27.15;15.60;;;12.60;55.90;;;;;;5034697;28;20061;-44
2022/05/04 04:58:16;;;;;;;30.13;15.68;;;12.70;55.80;;;;;;5035138;28;20057;-44
2022/05/04 05:00:45;;;;;;;23.08;14.70;;;12.70;55.80;;;;;;5039184;28;20053;-43
2022/05/04 05:03:13;;;;;;;36.95;20.23;;;12.70;55.90;;;;;;5038167;28;20457;-43
2022/05/04 05:05:42;;;;;;;41.15;21.52;;;12.70;55.90;;;;;;5040827;28;20087;-44
2022/05/04 05:08:10;;;;;;;32.65;18.02;;;12.70;56.10;;;;;;5040373;28;20429;-48
2022/05/04 05:10:38;;;;;;;37.70;20.48;;;12.70;56.10;;;;;;5038208;28;20504;-45
2022/05/04 05:13:06;;;;;;;27.52;16.63;;;12.80;56.20;;;;;;5035897;28;20053;-43
2022/05/04 05:18:22;;;;;;;37.60;19.00;;;12.80;56.40;;;;;;5034984;28;20060;-44
2022/05/04 05:20:50;;;;;;;39.88;20.90;;;12.80;56.40;;;;;;5031916;28;20049;-47
2022/05/04 05:23:19;;;;;;;37.33;21.75;;;12.80;57.10;;;;;;5029269;28;20049;-43
2022/05/04 05:25:47;;;;;;;36.08;20.00;;;12.90;56.90;;;;;;5038938;28;20056;-44
2022/05/04 05:28:14;;;;;;;38.88;20.98;;;12.90;57.10;;;;;;5037869;28;20655;-43
2022/05/04 05:30:42;;;;;;;43.28;22.42;;;12.90;57.00;;;;;;5036959;28;20041;-45
2022/05/04 05:33:10;;;;;;;35.65;20.67;;;12.90;57.10;;;;;;5033856;28;20056;-45
2022/05/04 05:35:38;;;;;;;43.10;23.30;;;13.00;57.20;;;;;;5039407;28;20508;-44
2022/05/04 05:38:08;;;;;;;38.47;21.27;;;13.00;57.50;;;;;;5036471;28;20057;-43
2022/05/04 05:40:36;;;;;;;37.13;20.60;;;12.90;57.30;;;;;;5038669;28;20049;-45
2022/05/04 05:43:03;;;;;;;38.30;20.77;;;13.00;57.40;;;;;;5037141;28;20048;-43
2022/05/04 05:45:30;;;;;;;37.80;21.15;;;13.00;57.60;;;;;;5034936;28;20049;-45
2022/05/04 05:47:58;;;;;;;38.88;21.77;;;13.10;57.50;;;;;;5042690;28;20079;-43
2022/05/04 05:50:26;;;;;;;38.92;20.67;;;13.10;57.60;;;;;;5038682;28;20580;-43
2022/05/04 05:52:55;;;;;;;41.33;21.02;;;13.10;57.40;;;;;;5036367;28;20055;-43
2022/05/04 05:55:22;;;;;;;41.70;22.30;;;13.10;57.30;;;;;;5038689;28;20050;-43
2022/05/04 05:57:50;;;;;;;36.85;20.63;;;13.20;57.30;;;;;;5040739;28;20049;-43
2022/05/04 06:00:18;;;;;;;37.22;20.80;;;13.20;57.40;;;;;;5037128;28;20055;-43
2022/05/04 06:02:45;;;;;;;42.15;22.15;;;13.20;57.50;;;;;;5025905;28;20469;-43
2022/05/04 06:05:13;;;;;;;40.88;20.55;;;13.20;57.70;;;;;;5039875;28;20390;-44
2022/05/04 06:07:41;;;;;;;47.85;23.02;;;13.20;57.80;;;;;;5042058;28;20064;-43
2022/05/04 06:10:10;;;;;;;40.90;21.13;;;13.10;57.90;;;;;;5040861;28;20049;-46
2022/05/04 06:12:39;;;;;;;41.35;21.25;;;13.10;58.00;;;;;;5037043;28;20390;-43
2022/05/04 06:15:08;;;;;;;36.75;18.95;;;13.10;58.00;;;;;;5034230;28;20057;-49
2022/05/04 06:17:36;;;;;;;39.88;20.35;;;13.10;58.30;;;;;;5032375;28;20507;-43
2022/05/04 06:20:05;;;;;;;37.35;19.75;;;13.10;58.40;;;;;;5041315;28;20609;-43
2022/05/04 06:22:32;;;;;;;33.92;18.20;;;13.10;58.40;;;;;;5036466;28;20045;-47
2022/05/04 06:25:00;;;;;;;34.33;19.13;;;13.20;58.20;;;;;;5035322;28;20076;-45
2022/05/04 06:27:30;;;;;;;38.00;18.63;;;13.20;58.20;;;;;;5034277;28;20045;-45
2022/05/04 06:35:27;;;;;;;;;;;13.40;57.80;;;;;;5046241;28;20063;-44
2022/05/04 06:37:54;;;;;;;38.13;19.95;;;13.50;57.60;;;;;;5034758;28;19928;-44
2022/05/04 06:40:22;;;;;;;41.25;21.15;;;13.70;57.70;;;;;;5041445;28;20486;-45
2022/05/04 06:42:51;;;;;;;41.20;22.10;;;13.60;57.70;;;;;;5039251;28;20052;-43
2022/05/04 06:45:18;;;;;;;35.45;20.83;;;13.70;57.80;;;;;;5038247;28;20068;-44
2022/05/04 06:47:46;;;;;;;39.17;20.48;;;13.70;57.70;;;;;;5040055;28;20053;-43
2022/05/04 06:50:13;;;;;;;39.45;20.45;;;13.70;57.80;;;;;;5038843;28;20062;-46
2022/05/04 06:52:41;;;;;;;44.78;21.55;;;13.80;58.00;;;;;;5032190;28;20409;-43
2022/05/04 06:55:09;;;;;;;44.72;22.20;;;13.80;57.80;;;;;;5037834;28;20069;-43
2022/05/04 06:57:37;;;;;;;38.80;21.38;;;13.70;58.00;;;;;;5038185;28;20052;-45
2022/05/04 07:00:08;;;;;;;39.35;21.95;;;13.70;57.80;;;;;;5037388;28;20515;-44
2022/05/04 07:02:35;;;;;;;48.95;22.15;;;13.60;57.90;;;;;;5037074;28;20381;-43
2022/05/04 07:05:04;;;;;;;48.85;22.17;;;13.60;58.00;;;;;;5036859;28;20504;-45
2022/05/04 07:07:32;;;;;;;46.83;22.85;;;13.50;58.30;;;;;;5037654;28;20532;-46
2022/05/04 07:09:59;;;;;;;34.05;19.67;;;13.50;58.60;;;;;;5036784;28;20057;-44
2022/05/04 07:12:26;;;;;;;42.97;21.50;;;13.50;58.70;;;;;;5027005;28;20425;-43
2022/05/04 07:14:56;;;;;;;33.95;19.25;;;13.50;58.90;;;;;;5032852;28;20049;-46
2022/05/04 07:17:25;;;;;;;34.45;19.20;;;13.50;58.80;;;;;;5038226;28;20531;-45
2022/05/04 07:19:52;;;;;;;44.65;21.20;;;13.60;58.70;;;;;;5033661;28;20493;-43
2022/05/04 07:22:21;;;;;;;44.97;22.08;;;13.60;58.70;;;;;;5034342;28;20055;-43
2022/05/04 07:24:48;;;;;;;34.97;19.83;;;13.60;59.00;;;;;;5036509;28;20056;-44
2022/05/04 07:27:16;;;;;;;35.45;20.10;;;13.70;59.00;;;;;;5034471;28;20489;-43
2022/05/04 07:29:44;;;;;;;36.67;20.65;;;13.60;59.00;;;;;;5037972;28;20068;-44
2022/05/04 07:32:12;;;;;;;44.47;21.90;;;13.60;58.60;;;;;;5026374;28;20056;-46
2022/05/04 07:34:41;;;;;;;38.90;21.80;;;13.70;58.60;;;;;;5033374;28;20599;-46
2022/05/04 07:37:09;;;;;;;31.10;19.52;;;13.60;58.70;;;;;;5032016;28;20079;-43
2022/05/04 07:42:24;;;;;;;38.30;20.67;;;13.60;58.50;;;;;;5041027;28;20060;-44
2022/05/04 07:44:57;;;;;;;50.03;22.25;;;13.70;58.40;;;;;;5042491;28;20060;-45
2022/05/04 07:47:24;;;;;;;46.77;22.70;;;13.80;58.80;;;;;;5040691;28;20064;-45
2022/05/04 07:49:53;;;;;;;37.25;22.10;;;13.80;59.10;;;;;;5038359;28;20053;-43
2022/05/04 07:52:21;;;;;;;35.47;20.73;;;13.80;58.90;;;;;;5035461;28;20052;-43
2022/05/04 07:54:48;;;;;;;39.85;21.17;;;13.90;58.80;;;;;;5038583;28;20790;-43
2022/05/04 07:57:15;;;;;;;38.42;19.92;;;13.90;58.40;;;;;;5040544;28;20056;-43
2022/05/04 08:04:16;;;;;;;40.70;20.35;;;14.00;58.10;;;;;;5040288;28;20072;-46
2022/05/04 08:05:13;;;;;;;42.67;22.70;;;14.20;58.20;;;;;;5028143;28;20067;-43
2022/05/04 08:07:40;;;;;;;41.72;20.90;;;14.20;58.00;;;;;;5039890;28;20448;-43
2022/05/04 08:10:09;;;;;;;39.22;20.40;;;14.30;57.80;;;;;;5038239;28;20055;-43
2022/05/04 08:12:36;;;;;;;37.42;20.90;;;14.30;57.80;;;;;;5036474;28;20051;-43
2022/05/04 08:15:04;;;;;;;46.00;22.60;;;14.40;57.70;;;;;;5039704;28;20413;-43
2022/05/04 08:17:32;;;;;;;38.28;21.80;;;14.40;57.10;;;;;;5039016;28;20061;-45
2022/05/04 08:19:59;;;;;;;42.03;23.08;;;14.40;57.40;;;;;;5039895;28;20083;-43
2022/05/04 08:22:28;;;;;;;53.72;22.58;;;14.40;57.30;;;;;;5037618;28;20059;-43
2022/05/04 08:24:56;;;;;;;42.45;22.85;;;14.40;57.30;;;;;;5040658;28;20059;-43
2022/05/04 08:27:23;;;;;;;46.20;23.90;;;14.50;56.90;;;;;;5041462;28;20052;-43
2022/05/04 08:29:50;;;;;;;34.80;21.20;;;14.40;56.90;;;;;;5041202;28;20049;-44
2022/05/04 08:32:18;;;;;;;42.33;22.05;;;14.50;57.10;;;;;;5034010;28;20083;-45
2022/05/04 08:34:45;;;;;;;43.85;23.88;;;14.50;57.50;;;;;;5038892;28;20136;-43
2022/05/04 08:37:13;;;;;;;41.55;23.00;;;14.50;57.10;;;;;;5040907;28;20417;-43
2022/05/04 08:39:41;;;;;;;42.08;21.63;;;14.60;57.10;;;;;;5040413;28;20059;-46
2022/05/04 08:42:10;;;;;;;41.53;22.80;;;14.60;57.00;;;;;;5033598;28;20061;-44
2022/05/04 08:44:40;;;;;;;42.42;23.30;;;14.60;57.30;;;;;;5041548;28;20056;-44
2022/05/04 08:47:13;;;;;;;48.90;22.75;;;14.70;57.60;;;;;;5034593;28;20049;-43
2022/05/04 08:49:42;;;;;;;47.90;23.15;;;14.70;57.30;;;;;;5036217;28;20074;-43
2022/05/04 08:52:12;;;;;;;35.67;21.35;;;14.80;57.00;;;;;;5030377;28;21442;-43
2022/05/04 08:54:42;;;;;;;46.20;24.45;;;14.80;57.30;;;;;;5039480;28;20056;-43
2022/05/04 08:57:10;;;;;;;42.90;23.05;;;14.90;57.60;;;;;;5040050;28;20060;-43
2022/05/04 08:59:38;;;;;;;42.58;22.85;;;14.90;57.40;;;;;;5039994;28;20068;-44
2022/05/04 09:02:06;;;;;;;44.30;23.35;;;15.00;57.20;;;;;;5038185;28;20056;-44
2022/05/04 09:04:34;;;;;;;40.50;22.10;;;15.10;57.60;;;;;;5037620;28;20397;-43
2022/05/04 09:07:01;;;;;;;51.03;23.67;;;15.10;57.30;;;;;;5040153;28;20061;-43
2022/05/04 09:09:34;;;;;;;37.92;22.33;;;15.10;57.00;;;;;;5036196;28;20061;-44
2022/05/04 09:12:04;;;;;;;47.58;23.08;;;15.20;56.80;;;;;;5033385;28;20504;-43
2022/05/04 09:14:35;;;;;;;45.55;25.58;;;15.30;57.20;;;;;;5043109;28;20057;-43
2022/05/04 09:17:04;;;;;;;47.58;25.35;;;15.40;57.00;;;;;;5044810;28;20500;-44
2022/05/04 09:19:32;;;;;;;51.15;27.80;;;15.40;56.60;;;;;;5037694;28;20053;-44
2022/05/04 09:22:00;;;;;;;51.20;27.23;;;15.50;55.70;;;;;;5035828;28;20091;-45
2022/05/04 09:24:28;;;;;;;49.25;28.38;;;15.50;56.20;;;;;;5037954;28;20056;-45
2022/05/04 09:26:57;;;;;;;51.42;26.33;;;15.50;55.80;;;;;;5044534;28;20064;-43
2022/05/04 09:29:35;;;;;;;51.17;26.73;;;15.50;56.10;;;;;;5042513;28;20527;-43
2022/05/04 09:32:14;;;;;;;43.72;26.65;;;15.50;56.60;;;;;;5041565;28;20520;-43
2022/05/04 09:34:41;;;;;;;51.28;26.67;;;15.60;56.40;;;;;;5039137;28;20056;-43
2022/05/04 09:45:40;;;;;;;46.00;25.77;;;15.90;55.40;;;;;;5039564;28;20053;-44
2022/05/04 09:48:12;;;;;;;45.03;23.67;;;16.00;54.60;;;;;;5041505;28;20527;-43
2022/05/04 09:50:40;;;;;;;54.05;26.95;;;16.10;55.10;;;;;;5043788;28;20053;-43
2022/05/04 09:53:08;;;;;;;52.95;26.58;;;16.10;54.50;;;;;;5043359;28;20135;-43
2022/05/04 09:55:36;;;;;;;43.65;25.10;;;16.20;54.30;;;;;;5043674;28;20057;-43
2022/05/04 09:58:04;;;;;;;40.25;24.48;;;16.20;54.50;;;;;;5042286;28;20068;-43
2022/05/04 10:00:31;;;;;;;49.05;27.58;;;16.20;55.10;;;;;;5042458;28;20075;-43
2022/05/04 10:03:00;;;;;;;38.70;24.13;;;16.20;54.60;;;;;;5035717;28;20049;-43
2022/05/04 10:05:29;;;;;;;39.65;23.38;;;16.20;54.50;;;;;;5040223;28;20045;-43
2022/05/04 10:07:57;;;;;;;53.58;25.50;;;16.30;54.50;;;;;;5040127;28;20068;-44
2022/05/04 10:10:25;;;;;;;48.50;25.10;;;16.40;54.50;;;;;;5042326;28;20045;-44
2022/05/04 10:12:52;;;;;;;44.90;25.98;;;16.40;54.00;;;;;;5041060;28;20040;-44
2022/05/04 10:15:21;;;;;;;41.97;25.77;;;16.40;54.00;;;;;;5042216;28;20080;-44
2022/05/04 10:17:54;;;;;;;42.33;26.65;;;16.40;53.00;;;;;;5042064;28;20413;-43
2022/05/04 10:20:30;;;;;;;48.60;26.73;;;16.40;53.60;;;;;;5039241;28;20053;-43
2022/05/04 10:23:02;;;;;;;47.85;24.83;;;16.50;53.80;;;;;;5040694;28;20064;-44
2022/05/04 10:25:33;;;;;;;39.80;25.13;;;16.50;53.90;;;;;;5042239;28;20057;-43
2022/05/04 10:28:06;;;;;;;39.38;23.58;;;16.60;54.10;;;;;;5037101;28;20066;-43
2022/05/04 10:30:34;;;;;;;44.63;24.40;;;16.60;53.70;;;;;;5025139;28;20049;-43
2022/05/04 10:33:05;;;;;;;36.58;22.75;;;16.70;53.90;;;;;;5023792;28;20049;-43
2022/05/04 10:35:37;;;;;;;37.80;22.92;;;16.80;53.70;;;;;;5020305;28;20069;-43
2022/05/04 10:38:07;;;;;;;36.63;21.42;;;17.00;54.10;;;;;;5022280;28;20064;-43
2022/05/04 10:40:36;;;;;;;37.88;20.48;;;17.00;52.70;;;;;;5022784;28;20088;-43
2022/05/04 10:43:05;;;;;;;32.85;20.98;;;17.10;52.30;;;;;;5026023;28;20052;-43
2022/05/04 10:45:34;;;;;;;31.65;19.02;;;17.10;51.70;;;;;;5025387;28;20059;-43
2022/05/04 10:48:31;;;;;;;34.95;19.40;;;17.20;52.00;;;;;;5020026;28;20057;-43
2022/05/04 10:51:05;;;;;;;31.13;19.58;;;17.30;51.60;;;;;;5024818;28;20055;-43
2022/05/04 10:53:38;;;;;;;39.17;20.25;;;17.40;51.50;;;;;;5026364;28;20496;-43
2022/05/04 10:56:08;;;;;;;35.00;19.40;;;17.40;51.40;;;;;;5027037;28;20060;-45
2022/05/04 10:58:37;;;;;;;38.03;21.60;;;17.50;51.40;;;;;;5018747;28;20064;-44
2022/05/04 11:01:07;;;;;;;32.95;19.92;;;17.50;50.90;;;;;;5023484;28;20066;-46
2022/05/04 11:03:38;;;;;;;35.88;20.50;;;17.50;51.60;;;;;;5019727;28;20045;-46
2022/05/04 11:06:10;;;;;;;34.97;21.17;;;17.60;51.10;;;;;;5016153;28;20056;-44
2022/05/04 11:08:48;;;;;;;32.28;21.15;;;17.60;50.30;;;;;;5014506;28;20057;-46
2022/05/04 11:11:16;;;;;;;32.47;20.25;;;17.60;49.90;;;;;;5018372;28;20062;-43
2022/05/04 11:13:44;;;;;;;34.38;20.92;;;17.70;50.70;;;;;;5022455;28;20052;-46
2022/05/04 11:16:12;;;;;;;33.78;20.83;;;17.70;50.40;;;;;;5016039;28;20049;-43
2022/05/04 11:18:39;;;;;;;34.30;20.70;;;17.70;49.50;;;;;;5019245;28;20056;-43
2022/05/04 11:21:13;;;;;;;34.42;19.83;;;17.70;49.30;;;;;;5021377;28;20064;-43
2022/05/04 11:23:45;;;;;;;34.50;19.77;;;17.70;48.90;;;;;;5016639;28;20049;-43
2022/05/04 11:26:21;;;;;;;38.72;20.63;;;17.70;49.50;;;;;;5025846;28;20425;-43
2022/05/04 11:28:49;;;;;;;35.58;20.95;;;17.80;49.90;;;;;;5017180;28;20053;-43
2022/05/04 11:31:17;;;;;;;30.95;19.20;;;17.80;49.20;;;;;;5019041;28;20048;-44
2022/05/04 11:33:46;;;;;;;39.67;21.00;;;17.90;49.80;;;;;;5021837;28;20075;-43
2022/05/04 11:36:19;;;;;;;37.58;22.00;;;18.00;50.00;;;;;;5032838;28;20759;-43
2022/05/04 11:38:47;;;;;;;34.58;21.70;;;18.10;49.40;;;;;;5031085;28;20512;-43
2022/05/04 11:41:14;;;;;;;42.03;22.20;;;18.20;50.60;;;;;;5039667;28;20076;-43
2022/05/04 11:43:42;;;;;;;38.25;22.33;;;18.30;50.20;;;;;;5034189;28;20061;-44
2022/05/04 11:46:13;;;;;;;31.58;19.17;;;18.40;50.10;;;;;;5034736;28;20405;-45
2022/05/04 11:48:43;;;;;;;40.25;23.20;;;18.50;49.60;;;;;;5033944;28;20044;-43
2022/05/04 11:51:11;;;;;;;38.58;21.90;;;18.60;49.00;;;;;;5034891;28;20058;-43
2022/05/04 11:53:40;;;;;;;42.13;22.33;;;18.70;48.70;;;;;;5037311;28;20053;-43
2022/05/04 11:56:09;;;;;;;37.53;22.10;;;18.60;47.20;;;;;;5037102;28;20045;-44
2022/05/04 11:58:38;;;;;;;32.92;20.15;;;18.60;48.30;;;;;;5036771;28;20460;-44
2022/05/04 12:01:08;;;;;;;34.15;19.70;;;18.70;49.10;;;;;;5036425;28;20057;-43
2022/05/04 12:03:39;;;;;;;32.55;19.83;;;18.70;48.60;;;;;;5041138;28;20049;-44
2022/05/04 12:06:10;;;;;;;34.10;21.67;;;18.80;48.40;;;;;;5038458;28;20555;-45
2022/05/04 12:08:40;;;;;;;42.33;23.63;;;18.80;46.70;;;;;;5038683;28;20497;-43
2022/05/04 12:11:08;;;;;;;36.22;21.45;;;18.80;47.30;;;;;;5038533;28;20056;-43
2022/05/04 12:13:38;;;;;;;32.40;20.33;;;18.90;47.60;;;;;;5039519;28;20056;-43
2022/05/04 12:16:07;;;;;;;41.50;24.23;;;18.90;47.60;;;;;;5039039;28;20055;-43
2022/05/04 12:18:36;;;;;;;49.60;25.48;;;18.90;47.20;;;;;;5034582;28;20408;-43
2022/05/04 12:21:08;;;;;;;41.72;23.92;;;19.00;46.70;;;;;;5036673;28;20052;-43
2022/05/04 12:23:39;;;;;;;34.25;21.58;;;18.90;46.70;;;;;;5034710;28;20053;-43
2022/05/04 12:26:10;;;;;;;41.30;24.63;;;18.90;47.20;;;;;;5030342;28;20079;-43
2022/05/04 12:28:38;;;;;;;40.70;23.52;;;19.00;47.20;;;;;;5018261;28;20053;-44
2022/05/04 12:33:52;;;;;;;38.47;22.33;;;19.00;46.40;;;;;;5019598;28;21722;-43
2022/05/04 12:36:23;;;;;;;40.08;25.05;;;19.00;46.80;;;;;;5014735;28;20053;-43
2022/05/04 12:38:53;;;;;;;45.80;25.00;;;19.00;46.00;;;;;;5015250;28;20142;-43
2022/05/04 12:41:24;;;;;;;37.03;23.40;;;19.00;45.70;;;;;;5024250;28;20051;-46
2022/05/04 12:43:52;;;;;;;43.08;25.77;;;19.00;45.80;;;;;;5026014;28;20057;-43
2022/05/04 12:46:20;;;;;;;40.42;24.58;;;18.90;45.60;;;;;;5031698;28;20056;-43
2022/05/04 12:48:50;;;;;;;43.50;24.48;;;18.90;46.20;;;;;;5030698;28;20055;-43
2022/05/04 12:51:18;;;;;;;39.33;25.00;;;18.90;47.00;;;;;;5039768;28;20060;-43
2022/05/04 12:53:49;;;;;;;41.45;24.05;;;18.90;46.50;;;;;;5037147;28;20053;-43
2022/05/04 12:59:04;;;;;;;37.35;22.55;;;19.00;45.30;;;;;;5047592;28;20059;-43
2022/05/04 13:01:36;;;;;;;45.00;25.58;;;19.00;46.10;;;;;;5036108;28;20045;-43
2022/05/04 13:04:03;;;;;;;42.08;24.95;;;19.00;45.50;;;;;;5034781;28;20057;-43
2022/05/04 13:06:31;;;;;;;39.88;24.55;;;19.10;45.40;;;;;;5016212;28;20057;-43
2022/05/04 13:09:00;;;;;;;38.92;24.80;;;19.10;46.00;;;;;;5022685;28;20048;-44
2022/05/04 13:11:27;;;;;;;37.03;24.02;;;19.10;46.10;;;;;;5016718;28;20054;-43
2022/05/04 13:13:55;;;;;;;37.53;22.88;;;19.10;46.60;;;;;;5025224;28;20061;-45
2022/05/04 13:16:23;;;;;;;39.75;24.45;;;19.20;46.70;;;;;;5030566;28;20045;-43